createdAt,value
2022-07-31T00:12:39.621Z,10579.59375
2022-07-31T00:27:41.876Z,10861.15137
2022-07-31T00:42:44.197Z,10379.96094
2022-07-31T00:57:46.420Z,10114.41211
2022-07-31T01:12:52.347Z,6206.50684
2022-07-31T01:27:56.493Z,7519.18652
2022-07-31T01:42:58.719Z,7304.48682
2022-07-31T01:58:00.996Z,1622.48694
2022-07-31T02:13:03.233Z,1530.20386
2022-07-31T02:28:05.553Z,1193.08813
2022-07-31T02:43:07.749Z,733.55621
2022-07-31T02:58:09.943Z,434.10706
2022-07-31T03:13:12.251Z,231.64932
2022-07-31T03:28:14.439Z,90.39973
2022-07-31T03:43:16.653Z,25.42493
2022-07-31T03:58:18.874Z,2.82499
2022-07-31T04:13:21.216Z,0
2022-07-31T04:28:23.449Z,0
2022-07-31T04:43:25.683Z,0
2022-07-31T04:58:27.906Z,0
2022-07-31T05:13:30.132Z,0
2022-07-31T05:28:32.366Z,0
2022-07-31T05:43:34.564Z,0
2022-07-31T05:58:36.784Z,0
2022-07-31T06:13:39.033Z,0
2022-07-31T06:28:49.111Z,0
2022-07-31T06:43:51.754Z,0
2022-07-31T06:58:54.023Z,0
2022-07-31T07:13:56.366Z,0
2022-07-31T07:28:58.617Z,0
2022-07-31T07:44:00.845Z,0
2022-07-31T07:59:03.063Z,0
2022-07-31T08:14:05.309Z,0
2022-07-31T08:29:07.768Z,0
2022-07-31T08:44:10.080Z,0
2022-07-31T08:59:12.464Z,0
2022-07-31T09:14:14.681Z,0
2022-07-31T09:29:17.114Z,0
2022-07-31T09:44:19.688Z,0
2022-07-31T09:59:28.305Z,0
2022-07-31T10:14:30.489Z,0
2022-07-31T10:29:33.193Z,0
2022-07-31T10:44:38.792Z,0
2022-07-31T10:59:44.578Z,0
2022-07-31T11:14:47.447Z,0
2022-07-31T11:30:01.945Z,0
2022-07-31T11:45:08.607Z,0.94166
2022-07-31T12:00:26.646Z,6.59165
2022-07-31T12:15:31.950Z,39.54988
2022-07-31T12:30:34.202Z,121.47465
2022-07-31T12:45:36.418Z,262.72424
2022-07-31T13:00:40.176Z,446.34869
2022-07-31T13:15:42.554Z,1209.09644
2022-07-31T13:30:44.764Z,2051.88574
2022-07-31T13:45:46.997Z,2843.82495
2022-07-31T14:00:49.280Z,3547.24805
2022-07-31T14:15:51.517Z,4218.6543
2022-07-31T14:30:53.700Z,4634.86963
2022-07-31T14:45:55.874Z,5490.84229
2022-07-31T15:00:58.153Z,5488.95898
2022-07-31T15:16:00.413Z,5836.43311
2022-07-31T15:31:02.717Z,6666.98047
2022-07-31T15:46:04.959Z,7958.94336
2022-07-31T16:01:07.217Z,8572.9082
2022-07-31T16:16:09.599Z,8755.59082
2022-07-31T16:31:11.795Z,8865.76562
2022-07-31T16:46:32.754Z,8529.5918
2022-07-31T17:01:54.146Z,8282.87598
2022-07-31T17:17:03.401Z,7925.98535
2022-07-31T17:32:06.004Z,7710.34424
2022-07-31T17:47:08.720Z,7529.54492
2022-07-31T18:02:11.826Z,7458.91992
2022-07-31T18:17:14.111Z,7578.51123
2022-07-31T18:32:16.284Z,7473.98633
2022-07-31T18:47:18.469Z,7516.36133
2022-07-31T19:02:20.885Z,7628.41943
2022-07-31T19:17:24.319Z,7699.04443
2022-07-31T19:32:45.838Z,7778.14404
2022-07-31T19:47:48.094Z,7865.71875
2022-07-31T20:02:50.561Z,7964.59326
2022-07-31T20:17:53.076Z,7926.92676
2022-07-31T20:32:55.302Z,7986.25195
2022-07-31T20:47:59.016Z,8083.24316
2022-07-31T21:03:01.191Z,8054.99316
2022-07-31T21:18:03.655Z,8010.73486
2022-07-31T21:33:05.933Z,7991.90186
2022-07-31T21:48:08.154Z,7861.95215
2022-07-31T22:03:10.448Z,7787.56055
2022-07-31T22:18:12.651Z,7759.31055
2022-07-31T22:33:15.025Z,7823.34375
2022-07-31T22:48:17.260Z,8122.79297
2022-07-31T23:03:19.477Z,8461.79199
2022-07-31T23:18:21.696Z,9203.82324
2022-07-31T23:33:23.895Z,10086.16211
2022-07-31T23:48:29.239Z,10815.00977
